Time;durP1;ratioP1;P1;durP2;ratioP2;P2;SDS_P1;SDS_P2;PMS_P1;PMS_P2;Temp;Humidity;BMP_temperature;BMP_pressure;BME280_temperature;BME280_humidity;BME280_pressure;Samples;Min_cycle;Max_cycle;Signal;HPM_P1;HPM_P2
2022/08/05 00:02:26;;;;;;;6.13;4.65;;;20.50;99.90;;;;;;5125653;27;20641;-49
2022/08/05 00:04:54;;;;;;;6.50;5.00;;;20.50;99.90;;;;;;5129816;28;20039;-48
2022/08/05 00:07:23;;;;;;;8.30;4.63;;;20.60;99.90;;;;;;5113478;28;20380;-48
2022/08/05 00:10:09;;;;;;;10.40;5.00;;;20.70;99.90;;;;;;5131814;28;20412;-49
2022/08/05 00:12:36;;;;;;;6.22;5.43;;;20.80;99.90;;;;;;5129648;27;20038;-50
2022/08/05 00:15:23;;;;;;;4.68;4.10;;;20.80;99.90;;;;;;5125686;28;20071;-48
2022/08/05 00:18:09;;;;;;;6.47;4.35;;;20.80;99.90;;;;;;5132193;28;20073;-51
2022/08/05 00:20:49;;;;;;;7.07;4.65;;;20.60;99.90;;;;;;5131658;27;20070;-53
2022/08/05 00:23:16;;;;;;;7.28;4.25;;;20.60;99.90;;;;;;5125648;28;20077;-48
2022/08/05 00:26:04;;;;;;;5.53;4.57;;;20.60;99.90;;;;;;5131939;28;20039;-52
2022/08/05 00:28:31;;;;;;;;;;;20.60;99.90;;;;;;5132506;28;20117;-50
2022/08/05 00:30:59;;;;;;;8.20;5.60;;;20.60;99.90;;;;;;5131023;27;19965;-48
2022/08/05 00:33:31;;;;;;;7.28;4.30;;;20.70;99.90;;;;;;5126423;28;20033;-49
2022/08/05 00:36:18;;;;;;;7.47;4.95;;;20.70;99.90;;;;;;5131460;28;20046;-50
2022/08/05 00:39:06;;;;;;;6.35;4.32;;;20.50;99.90;;;;;;5131787;28;20051;-48
2022/08/05 00:41:39;;;;;;;4.97;3.95;;;20.40;99.90;;;;;;5128090;28;20066;-51
2022/08/05 00:44:22;;;;;;;4.95;4.32;;;20.40;99.90;;;;;;5125008;28;20053;-50
2022/08/05 00:46:57;;;;;;;6.45;4.55;;;20.40;99.90;;;;;;5131939;28;20054;-48
2022/08/05 00:49:30;;;;;;;5.18;4.40;;;20.40;99.90;;;;;;5131825;28;20046;-52
2022/08/05 00:51:58;;;;;;;6.88;4.95;;;20.40;99.90;;;;;;5132912;27;20074;-48
2022/08/05 00:54:25;;;;;;;8.90;4.22;;;20.40;99.90;;;;;;5135499;27;20495;-50
2022/08/05 00:56:55;;;;;;;10.98;4.72;;;20.30;99.90;;;;;;5135499;27;20043;-49
2022/08/05 00:59:22;;;;;;;5.88;4.50;;;20.20;99.90;;;;;;5134136;27;20066;-48
2022/08/05 01:01:49;;;;;;;6.32;4.53;;;20.10;99.90;;;;;;5145089;22;20040;-51
2022/08/05 01:04:17;;;;;;;6.28;5.03;;;20.10;99.90;;;;;;5125775;27;20626;-49
2022/08/05 01:06:52;;;;;;;6.55;4.85;;;20.10;99.90;;;;;;5116780;27;20480;-52
2022/08/05 01:09:21;;;;;;;5.57;4.82;;;20.00;99.90;;;;;;5114438;28;20044;-50
2022/08/05 01:11:51;;;;;;;5.43;4.63;;;19.90;99.90;;;;;;5118907;27;20039;-51
2022/08/05 01:14:36;;;;;;;5.28;4.38;;;19.90;99.90;;;;;;5127964;27;20050;-51
2022/08/05 01:17:15;;;;;;;5.45;3.88;;;19.80;99.90;;;;;;5135227;27;20132;-52
2022/08/05 01:19:50;;;;;;;6.03;4.60;;;19.70;99.90;;;;;;5132642;27;20042;-50
2022/08/05 01:22:58;;;;;;;6.03;4.53;;;19.60;99.90;;;;;;5123837;27;20534;-51
2022/08/05 01:25:52;;;;;;;5.35;4.25;;;19.60;99.90;;;;;;5131836;27;20543;-51
2022/08/05 01:28:26;;;;;;;8.80;4.38;;;19.60;99.90;;;;;;5126838;27;20043;-52
2022/08/05 01:31:23;;;;;;;8.05;4.30;;;19.60;99.90;;;;;;5125875;27;20515;-52
2022/08/05 01:33:58;;;;;;;5.47;4.25;;;19.60;99.90;;;;;;5134892;27;20045;-53
2022/08/05 01:36:31;;;;;;;6.40;3.80;;;19.60;99.90;;;;;;5131716;27;20096;-50
2022/08/05 01:38:59;;;;;;;5.72;3.90;;;19.60;99.90;;;;;;5124514;27;20044;-50
2022/08/05 01:41:31;;;;;;;5.00;3.90;;;19.60;99.90;;;;;;5134278;27;20502;-53
2022/08/05 01:44:00;;;;;;;7.20;4.00;;;19.60;99.90;;;;;;5134729;27;20047;-50
2022/08/05 01:46:29;;;;;;;7.90;4.22;;;19.70;99.90;;;;;;5125432;27;20031;-51
2022/08/05 01:49:17;;;;;;;4.57;4.07;;;19.70;99.90;;;;;;5118385;27;20035;-50
2022/08/05 01:51:56;;;;;;;4.35;3.70;;;19.80;99.90;;;;;;5134085;27;20081;-52
2022/08/05 01:54:28;;;;;;;6.53;4.30;;;19.80;99.90;;;;;;5125853;27;20089;-50
2022/08/05 01:56:57;;;;;;;4.80;4.15;;;19.90;99.90;;;;;;5132714;27;20045;-50
2022/08/05 01:59:45;;;;;;;;;;;20.00;99.90;;;;;;5134551;27;20095;-53
2022/08/05 02:02:13;;;;;;;;;;;20.00;99.90;;;;;;5108351;28;19926;-52
2022/08/05 02:04:44;;;;;;;4.72;3.75;;;19.90;99.90;;;;;;5122026;27;19964;-49
2022/08/05 02:07:15;;;;;;;8.35;4.20;;;19.80;99.90;;;;;;5113676;28;20048;-49
2022/08/05 02:09:48;;;;;;;6.22;4.30;;;19.50;99.90;;;;;;5113537;28;20488;-50
2022/08/05 02:12:22;;;;;;;5.18;4.35;;;19.60;99.90;;;;;;5111938;27;20063;-51
2022/08/05 02:15:01;;;;;;;5.57;4.43;;;19.50;99.90;;;;;;5125281;27;20516;-50
2022/08/05 02:17:34;;;;;;;6.28;4.22;;;19.50;99.90;;;;;;5134036;27;20035;-51
2022/08/05 02:20:23;;;;;;;5.75;4.50;;;19.50;99.90;;;;;;5130946;27;20072;-50
2022/08/05 02:22:59;;;;;;;6.15;4.50;;;19.40;99.90;;;;;;5125265;27;20170;-49
2022/08/05 02:25:32;;;;;;;6.80;4.55;;;19.40;99.90;;;;;;5133597;27;20031;-51
2022/08/05 02:28:22;;;;;;;6.72;4.70;;;19.30;99.90;;;;;;5133913;27;20076;-49
2022/08/05 02:31:06;;;;;;;6.97;3.83;;;19.30;99.90;;;;;;5122696;27;20085;-50
2022/08/05 02:33:47;;;;;;;5.30;4.25;;;19.30;99.90;;;;;;5116504;27;20078;-53
2022/08/05 02:36:25;;;;;;;5.82;4.45;;;19.30;99.90;;;;;;5133646;27;20491;-52
2022/08/05 02:38:59;;;;;;;9.50;4.70;;;19.30;99.90;;;;;;5124421;27;20042;-52
2022/08/05 02:41:27;;;;;;;7.90;4.90;;;19.40;99.90;;;;;;5126791;27;20587;-49
2022/08/05 02:44:06;;;;;;;7.50;4.03;;;19.30;99.90;;;;;;5133541;27;20122;-51
2022/08/05 02:46:44;;;;;;;5.95;4.10;;;19.20;99.90;;;;;;5117596;27;20043;-51
2022/08/05 02:49:30;;;;;;;5.70;4.30;;;19.10;99.90;;;;;;5115331;27;20408;-51
2022/08/05 02:52:06;;;;;;;5.73;4.67;;;19.10;99.90;;;;;;5112360;28;20040;-52
2022/08/05 02:54:36;;;;;;;4.78;4.28;;;19.10;99.90;;;;;;5119012;27;20118;-50
2022/08/05 02:57:12;;;;;;;5.70;4.10;;;19.10;99.90;;;;;;5124777;27;20062;-51
2022/08/05 03:00:00;;;;;;;8.57;4.63;;;19.20;99.90;;;;;;5132510;27;20039;-50
2022/08/05 03:02:34;;;;;;;11.75;4.15;;;19.20;99.90;;;;;;5122132;27;20043;-50
2022/08/05 03:05:03;;;;;;;7.03;4.40;;;19.30;99.90;;;;;;5120889;27;20039;-54
2022/08/05 03:07:31;;;;;;;5.88;4.65;;;19.30;99.90;;;;;;5112461;28;20058;-50
2022/08/05 03:10:17;;;;;;;7.47;4.85;;;19.40;99.90;;;;;;5108342;28;20036;-52
2022/08/05 03:12:51;;;;;;;6.70;4.88;;;19.40;99.90;;;;;;5119220;27;20040;-50
2022/08/05 03:15:20;;;;;;;4.88;4.38;;;19.50;99.90;;;;;;5131973;27;20050;-50
2022/08/05 03:17:53;;;;;;;7.85;4.70;;;19.60;99.90;;;;;;5132675;27;20483;-51
2022/08/05 03:20:22;;;;;;;7.57;5.00;;;19.60;99.90;;;;;;5125680;27;20036;-49
2022/08/05 03:22:51;;;;;;;5.40;4.00;;;19.70;99.90;;;;;;5121417;27;20040;-51
2022/08/05 03:25:19;;;;;;;8.93;4.05;;;19.60;99.90;;;;;;5114425;27;20055;-50
2022/08/05 03:28:07;;;;;;;9.10;4.45;;;19.50;99.90;;;;;;5132764;27;20393;-53
2022/08/05 03:30:35;;;;;;;5.63;4.32;;;19.40;99.90;;;;;;5130310;27;20513;-49
2022/08/05 03:33:04;;;;;;;5.22;4.13;;;19.30;99.90;;;;;;5123822;27;20031;-51
2022/08/05 03:35:33;;;;;;;5.10;3.95;;;19.20;99.90;;;;;;5132407;27;20515;-52
2022/08/05 03:38:10;;;;;;;5.60;4.10;;;19.10;99.90;;;;;;5128269;27;20039;-50
2022/08/05 03:40:44;;;;;;;7.38;4.50;;;19.10;99.90;;;;;;5123434;27;20574;-52
2022/08/05 03:43:15;;;;;;;6.55;4.63;;;19.10;99.90;;;;;;5102250;28;20123;-52
2022/08/05 03:46:03;;;;;;;7.10;4.63;;;19.10;99.90;;;;;;5097230;28;20044;-50
2022/08/05 03:48:30;;;;;;;7.32;4.45;;;19.20;99.90;;;;;;5115229;28;20495;-51
2022/08/05 03:51:11;;;;;;;5.63;4.38;;;19.20;99.90;;;;;;5115163;28;20036;-49
2022/08/05 03:54:18;;;;;;;5.70;4.50;;;19.10;99.90;;;;;;5091050;28;20052;-49
2022/08/05 03:57:09;;;;;;;5.88;4.20;;;19.20;99.90;;;;;;5111412;28;20058;-51
2022/08/05 04:00:02;;;;;;;9.80;4.60;;;19.20;99.90;;;;;;5130239;28;20043;-51
2022/08/05 04:02:41;;;;;;;6.35;4.25;;;19.20;99.90;;;;;;5091146;28;20052;-50
2022/08/05 04:05:31;;;;;;;4.90;4.30;;;19.30;99.90;;;;;;5105242;28;20520;-51
2022/08/05 04:08:05;;;;;;;7.28;4.70;;;19.30;99.90;;;;;;5101146;28;20069;-51
2022/08/05 04:10:53;;;;;;;6.32;4.45;;;19.40;99.90;;;;;;5102816;28;20036;-51
2022/08/05 04:13:20;;;;;;;7.38;4.30;;;19.40;99.90;;;;;;5108551;28;20036;-51
2022/08/05 04:15:48;;;;;;;;;;;19.40;99.90;;;;;;5117034;28;20028;-50
2022/08/05 04:18:30;;;;;;;7.15;4.15;;;19.30;99.90;;;;;;5111813;28;19920;-51
2022/08/05 04:20:57;;;;;;;5.68;4.30;;;19.30;99.90;;;;;;5110678;28;20040;-53
2022/08/05 04:23:26;;;;;;;5.25;4.75;;;19.30;99.90;;;;;;5113645;28;20472;-52
2022/08/05 04:26:13;;;;;;;;;;;19.20;99.90;;;;;;5106068;27;20043;-53
2022/08/05 04:28:43;;;;;;;7.65;4.32;;;19.20;99.90;;;;;;5126180;27;19920;-52
2022/08/05 04:31:18;;;;;;;6.15;4.40;;;19.20;99.90;;;;;;5116297;27;20503;-53
2022/08/05 04:33:44;;;;;;;;;;;19.20;99.90;;;;;;5132908;27;20043;-50
2022/08/05 04:36:31;;;;;;;8.80;5.13;;;19.30;99.90;;;;;;5117190;27;19920;-52
2022/08/05 04:39:18;;;;;;;7.55;5.03;;;19.40;99.90;;;;;;5105679;27;20046;-51
2022/08/05 04:41:46;;;;;;;6.82;4.70;;;19.50;99.90;;;;;;5105304;27;20051;-50
2022/08/05 04:44:14;;;;;;;9.13;5.80;;;19.50;99.90;;;;;;5105061;28;20036;-53
2022/08/05 04:46:56;;;;;;;5.88;4.65;;;19.40;99.90;;;;;;5107731;27;20040;-52
2022/08/05 04:49:24;;;;;;;6.15;4.97;;;19.20;99.90;;;;;;5106823;28;20036;-50
2022/08/05 04:52:11;;;;;;;7.93;5.45;;;19.20;99.90;;;;;;5100094;28;20040;-53
2022/08/05 04:54:38;;;;;;;7.57;4.68;;;19.10;99.90;;;;;;5111972;28;20545;-53
2022/08/05 04:57:04;;;;;;;9.30;5.55;;;19.10;99.90;;;;;;5118615;27;20043;-49
2022/08/05 04:59:31;;;;;;;8.15;5.32;;;19.10;99.90;;;;;;5130147;27;20043;-52
2022/08/05 05:02:05;;;;;;;6.30;5.13;;;19.10;99.90;;;;;;5134740;27;20046;-50
2022/08/05 05:04:52;;;;;;;7.32;5.63;;;19.20;99.90;;;;;;5129387;27;20039;-51
2022/08/05 05:07:29;;;;;;;11.77;5.85;;;19.40;99.90;;;;;;5129573;27;20039;-51
2022/08/05 05:10:02;;;;;;;6.70;5.90;;;19.60;99.90;;;;;;5134914;27;20047;-54
2022/08/05 05:12:29;;;;;;;9.43;5.38;;;19.80;99.90;;;;;;5127896;27;20039;-54
2022/08/05 05:14:56;;;;;;;8.40;5.32;;;19.80;99.90;;;;;;5126678;27;20452;-50
2022/08/05 05:17:23;;;;;;;8.50;5.15;;;19.90;99.90;;;;;;5135135;27;20055;-52
2022/08/05 05:20:11;;;;;;;7.22;4.50;;;20.00;99.90;;;;;;5129061;27;20092;-49
2022/08/05 05:22:38;;;;;;;8.02;4.93;;;20.00;99.90;;;;;;5130408;27;20046;-50
2022/08/05 05:25:07;;;;;;;6.68;4.97;;;20.10;99.90;;;;;;5135102;27;20086;-49
2022/08/05 05:27:43;;;;;;;8.80;5.30;;;20.10;99.90;;;;;;5126113;27;20039;-50
2022/08/05 05:30:22;;;;;;;9.77;4.90;;;20.10;99.90;;;;;;5115769;27;20047;-49
2022/08/05 05:32:58;;;;;;;6.32;4.78;;;20.20;99.90;;;;;;5113968;28;20039;-49
2022/08/05 05:35:28;;;;;;;10.18;6.38;;;20.20;99.90;;;;;;5112731;28;20408;-52
2022/08/05 05:38:05;;;;;;;9.63;6.03;;;20.20;99.90;;;;;;5124245;27;20137;-49
2022/08/05 05:40:35;;;;;;;7.65;5.75;;;20.20;99.90;;;;;;5134043;27;20042;-50
2022/08/05 05:43:02;;;;;;;7.00;5.68;;;20.20;99.90;;;;;;5134572;27;20479;-49
2022/08/05 05:45:28;;;;;;;10.10;5.93;;;20.20;99.90;;;;;;5121880;27;20050;-49
2022/08/05 05:47:59;;;;;;;6.30;5.47;;;20.20;99.90;;;;;;5132615;27;20049;-50
2022/08/05 05:50:35;;;;;;;7.55;5.80;;;20.20;99.90;;;;;;5134176;27;20050;-51
2022/08/05 05:53:12;;;;;;;11.10;5.70;;;20.20;99.90;;;;;;5127869;27;20035;-50
2022/08/05 05:55:48;;;;;;;6.15;5.45;;;20.20;99.90;;;;;;5125845;27;20045;-52
2022/08/05 05:58:27;;;;;;;8.82;5.63;;;20.20;99.90;;;;;;5134380;27;20050;-49
2022/08/05 06:01:00;;;;;;;6.45;5.43;;;20.10;99.90;;;;;;5123947;27;20053;-49
2022/08/05 06:03:39;;;;;;;7.50;5.55;;;20.10;99.90;;;;;;5125581;27;20053;-49
2022/08/05 06:06:26;;;;;;;9.18;5.78;;;20.10;99.90;;;;;;5134316;27;20476;-49
2022/08/05 06:08:57;;;;;;;7.35;5.97;;;20.20;99.90;;;;;;5129549;27;20054;-50
2022/08/05 06:11:24;;;;;;;15.60;6.78;;;20.10;99.90;;;;;;5124724;27;20042;-49
2022/08/05 06:13:51;;;;;;;13.18;6.40;;;20.20;99.90;;;;;;5133820;27;20035;-49
2022/08/05 06:16:21;;;;;;;8.27;6.13;;;20.40;99.90;;;;;;5133852;27;20047;-50
2022/08/05 06:18:58;;;;;;;8.13;6.25;;;20.50;99.90;;;;;;5126791;27;20074;-49
2022/08/05 06:21:31;;;;;;;8.77;5.82;;;20.80;99.90;;;;;;5125006;27;20649;-50
2022/08/05 06:24:07;;;;;;;7.22;5.90;;;20.90;99.90;;;;;;5133557;27;20063;-49
2022/08/05 06:26:39;;;;;;;7.15;5.95;;;21.10;99.90;;;;;;5129580;27;20039;-49
2022/08/05 06:29:19;;;;;;;8.65;5.88;;;21.30;99.90;;;;;;5114457;27;20059;-49
2022/08/05 06:32:05;;;;;;;9.30;5.55;;;21.40;99.90;;;;;;5112643;28;20040;-52
2022/08/05 06:34:54;;;;;;;9.20;6.07;;;21.60;99.90;;;;;;5113077;28;20044;-50
2022/08/05 06:37:25;;;;;;;7.18;5.38;;;21.80;99.90;;;;;;5120505;27;20042;-51
2022/08/05 06:40:13;;;;;;;6.88;5.50;;;22.00;99.90;;;;;;5092138;28;20051;-50
2022/08/05 06:42:50;;;;;;;10.20;5.57;;;22.20;99.90;;;;;;5092476;28;20690;-50
2022/08/05 06:45:20;;;;;;;9.43;5.38;;;22.40;99.90;;;;;;5114896;27;20407;-50
2022/08/05 06:48:07;;;;;;;8.80;5.63;;;22.50;99.90;;;;;;5132922;27;20031;-49
2022/08/05 06:50:54;;;;;;;7.88;6.03;;;22.70;99.90;;;;;;5132840;27;20063;-49
2022/08/05 06:53:21;;;;;;;8.20;5.45;;;22.80;99.90;;;;;;5127330;27;20084;-50
2022/08/05 06:55:55;;;;;;;11.73;6.15;;;23.00;99.90;;;;;;5124861;27;20039;-50
2022/08/05 06:58:22;;;;;;;11.18;5.55;;;23.10;99.90;;;;;;5133199;27;20054;-50
2022/08/05 07:01:04;;;;;;;9.38;5.35;;;23.30;99.90;;;;;;5129332;27;20043;-51
2022/08/05 07:03:31;;;;;;;10.43;5.50;;;23.50;99.90;;;;;;5153022;22;20437;-50
2022/08/05 07:06:31;;;;;;;7.05;5.10;;;23.60;99.90;;;;;;5163492;27;20034;-53
2022/08/05 07:08:59;;;;;;;7.35;5.43;;;23.90;99.90;;;;;;5174571;27;20095;-49
2022/08/05 07:11:30;;;;;;;8.75;5.68;;;24.10;99.90;;;;;;5163175;27;20454;-50
2022/08/05 07:17:00;;;;;;;6.53;5.60;;;24.20;99.90;;;;;;5142509;27;20043;-48
2022/08/05 07:19:49;;;;;;;12.02;6.10;;;24.40;99.90;;;;;;5140975;27;20051;-48
2022/08/05 07:22:36;;;;;;;18.38;5.70;;;24.50;99.90;;;;;;5132644;27;20043;-50
2022/08/05 07:25:03;;;;;;;7.45;5.72;;;24.60;99.90;;;;;;5132533;27;20047;-49
2022/08/05 07:27:52;;;;;;;6.55;5.25;;;24.80;99.90;;;;;;5133983;27;20043;-49
2022/08/05 07:30:26;;;;;;;7.45;5.75;;;24.90;99.90;;;;;;5119652;27;20035;-49
2022/08/05 07:32:59;;;;;;;11.20;5.88;;;25.10;99.90;;;;;;5132289;27;20035;-49
2022/08/05 07:35:26;;;;;;;10.25;5.90;;;25.30;99.90;;;;;;5116669;27;20039;-49
2022/08/05 07:38:14;;;;;;;6.68;5.85;;;25.40;99.90;;;;;;5132487;27;20072;-48
2022/08/05 07:41:01;;;;;;;8.75;5.72;;;25.60;99.90;;;;;;5132187;27;20043;-49
2022/08/05 07:43:48;;;;;;;7.78;5.78;;;25.70;99.90;;;;;;5133351;27;20051;-51
2022/08/05 07:46:15;;;;;;;11.50;6.93;;;25.70;99.90;;;;;;5139553;27;20043;-49
2022/08/05 07:48:52;;;;;;;7.88;5.50;;;25.70;99.90;;;;;;5132407;28;20122;-48
2022/08/05 07:51:37;;;;;;;8.98;6.22;;;25.70;99.90;;;;;;5131825;27;20035;-49
2022/08/05 07:54:15;;;;;;;7.40;5.57;;;25.80;99.90;;;;;;5132285;28;20526;-50
2022/08/05 07:56:44;;;;;;;7.72;6.35;;;26.00;99.90;;;;;;5132481;27;20070;-50
2022/08/05 07:59:31;;;;;;;8.82;5.55;;;26.10;99.90;;;;;;5132446;27;20047;-49
2022/08/05 08:02:07;;;;;;;6.03;5.05;;;26.30;99.90;;;;;;5143042;27;20092;-49
2022/08/05 08:04:43;;;;;;;7.13;5.45;;;26.50;99.90;;;;;;5136668;27;20047;-48
2022/08/05 08:07:12;;;;;;;7.43;5.30;;;26.50;99.90;;;;;;5136856;27;20121;-49
2022/08/05 08:09:39;;;;;;;6.35;5.57;;;26.60;99.90;;;;;;5144516;27;20461;-49
2022/08/05 08:12:05;;;;;;;6.47;4.80;;;26.70;99.90;;;;;;5135977;27;20051;-49
2022/08/05 08:14:52;;;;;;;6.22;5.25;;;26.80;99.90;;;;;;5136635;27;20433;-50
2022/08/05 08:17:20;;;;;;;6.55;5.35;;;27.00;99.90;;;;;;5136573;27;20530;-49
2022/08/05 08:19:47;;;;;;;7.35;5.70;;;27.20;99.90;;;;;;5129413;27;20097;-49
2022/08/05 08:22:34;;;;;;;6.07;5.43;;;27.30;99.90;;;;;;5136196;27;20040;-49
2022/08/05 08:25:01;;;;;;;6.47;5.18;;;27.40;99.90;;;;;;5135815;27;20066;-51
2022/08/05 08:27:29;;;;;;;7.68;5.28;;;27.50;99.90;;;;;;5136294;27;20035;-51
2022/08/05 08:30:12;;;;;;;6.90;5.47;;;27.60;99.90;;;;;;5135578;27;20067;-51
2022/08/05 08:32:58;;;;;;;;;;;27.80;99.90;;;;;;5136419;27;20084;-49
2022/08/05 08:35:30;;;;;;;6.32;5.13;;;27.90;99.90;;;;;;5135728;27;19969;-49
2022/08/05 08:38:06;;;;;;;6.80;5.30;;;28.10;99.90;;;;;;5144021;27;20054;-49
2022/08/05 08:40:34;;;;;;;9.23;5.25;;;28.20;99.90;;;;;;5135416;27;20039;-48
2022/08/05 08:43:03;;;;;;;8.60;5.38;;;28.20;99.90;;;;;;5135631;27;20091;-49
2022/08/05 08:45:52;;;;;;;7.05;5.70;;;28.30;99.90;;;;;;5144486;27;20826;-53
2022/08/05 08:48:20;;;;;;;8.13;5.22;;;28.50;99.90;;;;;;5135564;27;20039;-50
2022/08/05 08:51:07;;;;;;;8.15;5.40;;;28.50;99.90;;;;;;5135264;27;20096;-51
2022/08/05 08:53:54;;;;;;;6.18;5.57;;;28.60;99.90;;;;;;5135457;27;20031;-48
2022/08/05 08:56:22;;;;;;;7.97;5.78;;;28.70;99.90;;;;;;5143756;27;20373;-49
2022/08/05 08:58:53;;;;;;;6.50;5.65;;;28.60;99.90;;;;;;5135546;27;20049;-49
2022/08/05 09:01:20;;;;;;;7.18;5.28;;;28.50;99.90;;;;;;5135000;27;21433;-49
2022/08/05 09:03:52;;;;;;;6.15;5.28;;;28.40;99.90;;;;;;5124982;27;20050;-50
2022/08/05 09:06:24;;;;;;;6.85;5.55;;;28.60;99.90;;;;;;5135550;27;20055;-51
2022/08/05 09:08:57;;;;;;;7.03;5.70;;;28.70;99.90;;;;;;5135505;27;20036;-50
2022/08/05 09:11:24;;;;;;;11.48;5.95;;;28.70;99.90;;;;;;5140693;27;20041;-50
2022/08/05 09:14:11;;;;;;;7.32;6.18;;;28.90;99.90;;;;;;5135212;27;20051;-48
2022/08/05 09:17:04;;;;;;;6.93;5.32;;;28.90;99.90;;;;;;5135292;27;20096;-49
2022/08/05 09:19:35;;;;;;;6.50;5.87;;;29.00;99.90;;;;;;5135568;27;20060;-50
2022/08/05 09:22:22;;;;;;;7.45;5.45;;;29.10;99.90;;;;;;5140580;27;20107;-49
2022/08/05 09:25:00;;;;;;;7.78;5.63;;;29.00;99.90;;;;;;5155772;27;20465;-49
2022/08/05 09:27:44;;;;;;;6.70;5.68;;;29.10;99.90;;;;;;5151887;27;20062;-50
2022/08/05 09:30:32;;;;;;;7.35;5.78;;;29.10;99.90;;;;;;5141211;27;20056;-49
2022/08/05 09:33:03;;;;;;;9.35;5.70;;;29.20;99.90;;;;;;5155493;27;20049;-49
2022/08/05 09:35:30;;;;;;;8.15;5.88;;;29.30;99.90;;;;;;5155251;27;20034;-50
2022/08/05 09:37:58;;;;;;;8.98;5.90;;;29.30;99.90;;;;;;5141572;27;20510;-50
2022/08/05 09:40:43;;;;;;;7.35;6.00;;;29.30;99.90;;;;;;5137721;27;20503;-53
2022/08/05 09:43:33;;;;;;;13.10;6.15;;;29.20;99.90;;;;;;5134271;27;20051;-50
2022/08/05 09:46:32;;;;;;;8.80;5.65;;;29.20;99.90;;;;;;5134564;27;20043;-49
2022/08/05 09:49:06;;;;;;;9.35;6.70;;;29.30;99.90;;;;;;5142693;27;20038;-51
2022/08/05 09:51:45;;;;;;;8.38;5.65;;;29.40;99.90;;;;;;5134084;27;20050;-50
2022/08/05 09:54:16;;;;;;;8.10;6.10;;;29.40;99.90;;;;;;5134864;27;20095;-50
2022/08/05 09:56:56;;;;;;;8.43;5.57;;;29.40;99.90;;;;;;5142599;27;20570;-49
2022/08/05 09:59:26;;;;;;;8.25;5.35;;;29.50;99.90;;;;;;5134229;27;20043;-51
2022/08/05 10:01:53;;;;;;;;;;;29.70;99.90;;;;;;5134067;27;20050;-50
2022/08/05 10:04:34;;;;;;;8.95;5.35;;;29.70;99.90;;;;;;5134564;27;19962;-50
2022/08/05 10:07:06;;;;;;;6.75;4.13;;;29.80;99.90;;;;;;5142158;27;20065;-50
2022/08/05 10:09:55;;;;;;;4.53;3.55;;;29.60;99.90;;;;;;5133805;27;20039;-50
2022/08/05 10:12:49;;;;;;;;;;;29.30;99.90;;;;;;5127496;27;20459;-50
2022/08/05 10:15:38;;;;;;;6.90;3.70;;;29.10;99.90;;;;;;5133850;27;19919;-49
2022/08/05 10:18:10;;;;;;;7.57;3.35;;;28.90;99.90;;;;;;5133987;27;20403;-51
2022/08/05 10:20:41;;;;;;;5.72;3.30;;;28.70;99.90;;;;;;5134187;27;20053;-50
2022/08/05 10:23:12;;;;;;;4.47;3.53;;;28.80;99.30;;;;;;5133471;27;20487;-49
2022/08/05 10:26:02;;;;;;;13.95;3.95;;;28.80;98.50;;;;;;5133547;27;20047;-50
2022/08/05 10:28:33;;;;;;;5.75;3.78;;;28.90;99.10;;;;;;5133866;27;20407;-50
2022/08/05 10:31:03;;;;;;;6.63;3.85;;;28.90;98.50;;;;;;5136068;27;20043;-50
2022/08/05 10:33:50;;;;;;;4.90;3.65;;;28.90;99.30;;;;;;5136212;27;20039;-49
2022/08/05 10:36:20;;;;;;;8.63;4.00;;;29.00;99.20;;;;;;5133465;27;20053;-48
2022/08/05 10:38:57;;;;;;;6.88;3.88;;;29.00;98.90;;;;;;5133417;27;20040;-52
2022/08/05 10:41:33;;;;;;;5.03;3.80;;;28.90;99.20;;;;;;5144772;27;20117;-49
2022/08/05 10:44:17;;;;;;;8.63;3.90;;;28.90;99.30;;;;;;5133410;27;20104;-48
2022/08/05 10:46:49;;;;;;;8.95;3.90;;;28.90;99.00;;;;;;5133355;27;20035;-49
2022/08/05 10:49:21;;;;;;;7.60;3.92;;;28.90;98.40;;;;;;5133567;27;20125;-49
2022/08/05 10:52:01;;;;;;;5.78;3.80;;;28.60;99.00;;;;;;5141357;27;20039;-50
2022/08/05 10:54:45;;;;;;;6.05;3.72;;;28.40;99.90;;;;;;5133379;27;20126;-49
2022/08/05 10:57:26;;;;;;;6.75;4.28;;;28.10;99.50;;;;;;5132834;27;20058;-49
2022/08/05 11:00:10;;;;;;;;;;;28.30;99.90;;;;;;5144802;27;20070;-50
2022/08/05 11:03:13;;;;;;;4.15;3.70;;;28.60;99.60;;;;;;5144569;27;19926;-49
2022/08/05 11:06:06;;;;;;;6.55;3.72;;;28.40;99.30;;;;;;5133067;27;20082;-49
2022/08/05 11:08:34;;;;;;;8.13;4.03;;;28.20;99.40;;;;;;5137789;27;20043;-49
2022/08/05 11:11:34;;;;;;;6.60;4.50;;;28.10;99.90;;;;;;5140012;27;20039;-48
2022/08/05 11:14:27;;;;;;;6.22;4.18;;;28.00;99.90;;;;;;5132848;27;20031;-50
2022/08/05 11:17:26;;;;;;;6.35;3.83;;;27.90;99.90;;;;;;5133250;27;20043;-50
2022/08/05 11:20:52;;;;;;;5.15;4.05;;;28.00;99.90;;;;;;5135946;27;20503;-48
2022/08/05 11:23:35;;;;;;;12.10;4.03;;;28.40;99.90;;;;;;5032594;28;20064;-50
2022/08/05 11:26:24;;;;;;;5.93;4.80;;;28.80;99.90;;;;;;5054240;28;20570;-49
2022/08/05 11:29:01;;;;;;;6.30;4.85;;;29.00;99.90;;;;;;5133472;27;20646;-49
2022/08/05 11:31:38;;;;;;;6.43;4.80;;;29.00;99.90;;;;;;5153060;27;20039;-52
2022/08/05 11:34:36;;;;;;;7.40;4.65;;;28.80;99.90;;;;;;5150465;27;20039;-49
2022/08/05 11:37:03;;;;;;;6.88;4.40;;;28.80;99.90;;;;;;5140379;27;20046;-50
2022/08/05 11:39:50;;;;;;;4.88;4.38;;;28.80;99.90;;;;;;5132483;27;20047;-49
2022/08/05 11:42:33;;;;;;;5.63;4.45;;;28.80;99.90;;;;;;5132372;27;20070;-49
2022/08/05 11:45:06;;;;;;;7.60;4.53;;;28.90;99.30;;;;;;5138171;27;20063;-52
2022/08/05 11:47:53;;;;;;;8.02;4.53;;;29.00;99.70;;;;;;5144728;27;20095;-49
2022/08/05 11:50:21;;;;;;;11.85;4.68;;;29.10;99.90;;;;;;5151374;27;20074;-49
2022/08/05 11:52:48;;;;;;;5.45;4.70;;;29.10;99.60;;;;;;5150543;27;20027;-53
2022/08/05 11:55:20;;;;;;;10.52;5.10;;;29.20;99.90;;;;;;5139982;27;20678;-50
2022/08/05 11:57:46;;;;;;;;;;;29.20;99.70;;;;;;5144262;27;20049;-49
2022/08/05 12:00:33;;;;;;;17.52;4.50;;;29.20;99.60;;;;;;5145198;27;19923;-50
2022/08/05 12:03:21;;;;;;;5.53;4.50;;;29.20;99.40;;;;;;5141620;27;20118;-51
2022/08/05 12:06:04;;;;;;;7.40;4.55;;;29.20;99.10;;;;;;5141134;27;20039;-48
2022/08/05 12:08:40;;;;;;;9.00;4.53;;;29.20;99.10;;;;;;5149973;27;20125;-53
2022/08/05 12:11:22;;;;;;;6.22;5.00;;;29.20;98.40;;;;;;5143621;27;20038;-50
2022/08/05 12:14:03;;;;;;;10.10;5.03;;;29.10;99.30;;;;;;5124938;27;20103;-51
2022/08/05 12:16:35;;;;;;;4.90;4.40;;;28.90;98.50;;;;;;5148152;27;20035;-51
2022/08/05 12:19:06;;;;;;;7.93;4.45;;;29.00;99.20;;;;;;5147340;27;20105;-49
2022/08/05 12:21:42;;;;;;;9.52;4.63;;;29.10;98.20;;;;;;5138852;27;20510;-49
2022/08/05 12:24:21;;;;;;;6.85;4.55;;;29.10;98.80;;;;;;5145124;27;20096;-54
2022/08/05 12:26:52;;;;;;;6.97;4.72;;;29.20;99.30;;;;;;5144834;27;20043;-51
2022/08/05 12:29:20;;;;;;;6.85;4.13;;;29.20;98.50;;;;;;5142453;27;20023;-52
2022/08/05 12:31:54;;;;;;;9.68;4.82;;;28.90;98.70;;;;;;5143423;27;20035;-48
2022/08/05 12:34:27;;;;;;;6.82;5.03;;;28.60;98.90;;;;;;5152108;27;20035;-50
2022/08/05 12:36:56;;;;;;;6.95;4.95;;;28.80;98.30;;;;;;5145991;27;20072;-50
2022/08/05 12:39:24;;;;;;;7.60;4.40;;;29.00;98.20;;;;;;5132087;27;20461;-49
2022/08/05 12:42:00;;;;;;;7.07;4.07;;;29.20;98.80;;;;;;5151473;27;20481;-48
2022/08/05 12:44:27;;;;;;;6.60;4.53;;;29.50;98.10;;;;;;5146960;27;20046;-49
2022/08/05 12:47:00;;;;;;;11.10;4.85;;;29.70;98.20;;;;;;5146236;27;21032;-49
2022/08/05 12:49:38;;;;;;;6.85;4.70;;;29.60;98.20;;;;;;5152982;27;20030;-50
2022/08/05 12:52:26;;;;;;;8.83;4.77;;;29.60;98.70;;;;;;5150682;27;20039;-53
2022/08/05 12:55:19;;;;;;;9.70;5.25;;;29.60;98.70;;;;;;5147906;27;20047;-49
2022/08/05 12:57:50;;;;;;;7.95;4.75;;;29.20;97.60;;;;;;5152310;27;20037;-52
2022/08/05 13:00:42;;;;;;;6.05;4.53;;;28.80;98.00;;;;;;5153669;27;20038;-49
2022/08/05 13:03:57;;;;;;;5.75;4.60;;;28.70;98.40;;;;;;5145257;22;20043;-54
2022/08/05 13:10:17;;;;;;;7.93;4.75;;;28.60;99.90;;;;;;5096903;27;20095;-51
2022/08/05 13:12:46;;;;;;;7.10;5.00;;;28.40;99.10;;;;;;5119693;27;20082;-54
2022/08/05 13:15:30;;;;;;;11.52;4.97;;;28.70;99.00;;;;;;5123993;27;20142;-52
2022/08/05 13:18:19;;;;;;;6.70;4.68;;;29.50;99.90;;;;;;5129604;27;20064;-51
2022/08/05 13:20:47;;;;;;;7.38;4.38;;;30.00;98.80;;;;;;5132183;27;20122;-50
2022/08/05 13:23:16;;;;;;;8.18;4.88;;;30.40;98.10;;;;;;5132538;27;20078;-51
2022/08/05 13:25:47;;;;;;;7.63;4.78;;;30.80;98.70;;;;;;5126936;27;20435;-51
2022/08/05 13:28:26;;;;;;;8.10;4.60;;;31.00;98.00;;;;;;5127608;27;20047;-51
2022/08/05 13:30:52;;;;;;;5.78;4.55;;;30.90;96.70;;;;;;5133989;27;20039;-53
2022/08/05 13:33:20;;;;;;;;;;;31.00;96.20;;;;;;5133142;27;20406;-53
2022/08/05 13:36:06;;;;;;;7.28;4.25;;;31.00;96.10;;;;;;5126150;27;19929;-51
2022/08/05 13:38:35;;;;;;;9.32;5.00;;;31.00;96.90;;;;;;5126451;27;20050;-51
2022/08/05 13:41:09;;;;;;;8.18;4.75;;;30.90;96.60;;;;;;5134009;27;20039;-51
2022/08/05 13:43:37;;;;;;;9.05;4.95;;;31.00;96.00;;;;;;5131650;27;20047;-53
2022/08/05 13:46:22;;;;;;;7.35;4.68;;;31.00;96.10;;;;;;5133123;27;20035;-50